Home   Weather   Poland   Rzeszów   Past weeks
Flag for Poland

Past Weather in Rzeszów, Poland — Yesterday and Last 2 Weeks

Currently: 72 °F. Sunny. (Weather station: Rzeszow-Jasionka, Poland). See more current weather

Past Weather in Rzeszów — Graph

°F

Rzeszów Temperature Yesterday

Maximum temperature yesterday: 88 °F (at 4:30 pm)
Minimum temperature yesterday: 64 °F (at 5:00 am)
Average temperature yesterday: 76 °F

High & Low Weather Summary for the Past Weeks

 TemperatureHumidityPressure
High93 °F (Jul 10, 3:30 pm)100% (Jul 5, 1:30 am)30.15 "Hg (Jul 5, 1:30 am)
Low50 °F (Jul 3, 2:00 am)31% (Jul 5, 3:00 pm)29.71 "Hg (Jul 3, 6:00 pm)
Average73 °F70%29.92 "Hg
* Reported Jul 1 5:00 am — Jul 16 5:00 am, Rzeszów. Weather by CustomWeather, © 2024

Note: Actual official high and low records may vary slightly from our data, if they occured in-between our weather recording intervals... More about our weather records

Rzeszów Weather History for the Previous 24 Hours

Scroll right to see more
 ConditionsComfort  
Time TempWeatherWind HumidityBarometerVisibility
5:00 am
Tue, Jul 16
70 °FSunny.7 mph94%29.95 "Hg10 mi
4:30 am70 °FClear.7 mph94%29.95 "Hg10 mi
4:00 am70 °FClear.8 mph94%29.95 "Hg10 mi
3:30 am70 °FClear.7 mph94%29.95 "Hg10 mi
3:00 am70 °FClear.7 mph94%29.95 "Hg10 mi
2:30 am70 °FClear.6 mph94%29.95 "Hg10 mi
2:00 am70 °FClear.6 mph94%29.95 "Hg10 mi
1:30 am70 °FClear.5 mph94%29.95 "Hg10 mi
1:00 am72 °FClear.6 mph88%29.95 "Hg10 mi
12:00 am73 °FClear.3 mph83%29.98 "Hg10 mi
11:30 pm
Mon, Jul 15
73 °FClear.5 mph83%29.98 "Hg10 mi
11:00 pm75 °FClear.6 mph78%29.98 "Hg10 mi
10:30 pm75 °FClear.5 mph78%29.98 "Hg10 mi
10:00 pm75 °FClear.6 mph78%29.98 "Hg10 mi
9:30 pm77 °FPassing clouds.6 mph69%29.98 "HgN/A
9:00 pm79 °FClear.6 mph65%29.95 "Hg10 mi
8:30 pm81 °FSunny.6 mph62%29.95 "Hg10 mi
8:00 pm84 °FSunny.7 mph55%29.95 "Hg10 mi
7:30 pm84 °FSunny.7 mph55%29.95 "Hg10 mi
7:00 pm86 °FSunny.9 mph52%29.95 "Hg10 mi
6:30 pm86 °FSunny.9 mph52%29.95 "Hg10 mi
6:00 pm86 °FPassing clouds.7 mph52%29.95 "HgN/A
5:30 pm86 °FSunny.8 mph46%29.95 "Hg10 mi
5:00 pm88 °FPassing clouds.6 mph46%29.95 "HgN/A
4:30 pm88 °FPassing clouds.7 mph49%29.98 "HgN/A
4:00 pm86 °FSunny.9 mph52%29.98 "Hg10 mi
3:00 pm84 °FPassing clouds.8 mph55%29.98 "HgN/A
2:30 pm86 °FPassing clouds.7 mph52%29.98 "HgN/A
2:00 pm84 °FPassing clouds.6 mph58%29.98 "HgN/A
1:30 pm82 °FScattered clouds.5 mph62%29.98 "HgN/A
1:00 pm82 °FScattered clouds.5 mph62%30.01 "HgN/A
12:30 pm82 °FScattered clouds.5 mph62%30.01 "HgN/A
12:00 pm81 °FScattered clouds.3 mph62%30.01 "HgN/A
11:30 am81 °FPassing clouds.3 mph62%30.01 "HgN/A
10:30 am79 °FScattered clouds.5 mph70%30.01 "HgN/A
10:00 am77 °FScattered clouds.3 mph74%30.01 "HgN/A
9:30 am79 °FPassing clouds.5 mph74%30.01 "HgN/A
9:00 am77 °FPassing clouds.3 mph74%30.01 "HgN/A
8:30 am77 °FPassing clouds.2 mph74%30.01 "HgN/A
8:00 am73 °FScattered clouds.1 mph83%30.01 "HgN/A
7:30 am72 °FPassing clouds.3 mph83%30.01 "HgN/A
7:00 am70 °FPassing clouds.3 mph88%30.01 "HgN/A
6:30 am68 °FPassing clouds.6 mph94%29.98 "HgN/A
6:00 am66 °FClear.5 mph100%29.98 "Hg5 mi
Weather by CustomWeather, © 2024

See weather overview